Crumpler, West Virginia
Current Conditions -  °F | °C
As of 4:52 PM on Thursday 18 Dec 2014 (Local Time) from KBLF Reporting Station
Overcast Overcast  
Wind Chill: 29°   Ceiling: 6000
Heat Index: 36°   Visibility: 10mi
Dew Point: 22°   Wind: 9mph
Humidity: 57%   Direction: 300°WNW
Pressure: 30.07"   Gusts: NA
Location:  37.42°N, 81.34°W
Report Text: KBLF 182152Z AUTO 30008KT 10SM OVC060 02/M06 A3007 RMK AO2 SLP200 T00221056
Loading
Personal Weather Stations






























Interactive Weather Map New forecast layout! Learn more

10-Day Weather Forecast

Advertisements
Track Severe Weather on mobile